Time;durP1;ratioP1;P1;durP2;ratioP2;P2;SDS_P1;SDS_P2;PMS_P1;PMS_P2;Temp;Humidity;BMP_temperature;BMP_pressure;BME280_temperature;BME280_humidity;BME280_pressure;Samples;Min_cycle;Max_cycle;Signal;HPM_P1;HPM_P2
2023/06/06 00:02:22;;;;;;;10.88;3.45;;;;;;;;;;5023704;28;20033;-45
2023/06/06 00:04:50;;;;;;;10.82;2.90;;;;;;;;;;5018146;28;20049;-47
2023/06/06 00:07:20;;;;;;;9.02;3.05;;;;;;;;;;5012011;28;20053;-45
2023/06/06 00:09:47;;;;;;;9.68;3.70;;;;;;;;;;5017246;28;20052;-44
2023/06/06 00:12:17;;;;;;;9.23;3.20;;;;;;;;;;5004050;28;20055;-44
2023/06/06 00:14:44;;;;;;;12.15;3.38;;;;;;;;;;5017613;28;20044;-47
2023/06/06 00:17:12;;;;;;;7.90;3.13;;;;;;;;;;5003112;28;20037;-44
2023/06/06 00:19:42;;;;;;;13.32;3.20;;;;;;;;;;5026386;28;20170;-46
2023/06/06 00:22:10;;;;;;;9.68;3.13;;;;;;;;;;5014242;28;20706;-47
2023/06/06 00:24:38;;;;;;;9.57;3.60;;;;;;;;;;5023923;28;20034;-46
2023/06/06 00:27:07;;;;;;;11.80;3.55;;;;;;;;;;5007421;28;20033;-45
2023/06/06 00:29:36;;;;;;;8.82;3.92;;;;;;;;;;5019771;28;20041;-44
2023/06/06 00:32:03;;;;;;;12.82;3.58;;;;;;;;;;5025384;28;20056;-45
2023/06/06 00:34:31;;;;;;;11.75;3.85;;;;;;;;;;4998113;28;20420;-45
2023/06/06 00:36:59;;;;;;;9.23;3.73;;;;;;;;;;4995192;28;20492;-45
2023/06/06 00:39:27;;;;;;;9.80;3.75;;;;;;;;;;5013863;28;20246;-46
2023/06/06 00:41:59;;;;;;;12.05;3.58;;;;;;;;;;5016007;28;20053;-44
2023/06/06 00:44:26;;;;;;;12.55;3.55;;;;;;;;;;5011470;28;20033;-43
2023/06/06 00:46:55;;;;;;;10.05;3.40;;;;;;;;;;5025687;28;20048;-44
2023/06/06 00:49:23;;;;;;;8.37;3.90;;;;;;;;;;5015679;28;20072;-45
2023/06/06 00:51:51;;;;;;;8.88;3.58;;;;;;;;;;5022090;28;20684;-45
2023/06/06 00:54:19;;;;;;;9.65;3.33;;;;;;;;;;5016441;28;20049;-43
2023/06/06 00:56:48;;;;;;;10.10;3.75;;;;;;;;;;5011323;28;20056;-47
2023/06/06 00:59:16;;;;;;;11.10;3.88;;;;;;;;;;5011397;28;20041;-45
2023/06/06 01:01:48;;;;;;;8.63;3.53;;;;;;;;;;5024400;28;20048;-45
2023/06/06 01:04:18;;;;;;;12.05;3.30;;;;;;;;;;5007924;28;20073;-45
2023/06/06 01:06:46;;;;;;;10.23;3.75;;;;;;;;;;5025102;28;20081;-44
2023/06/06 01:09:15;;;;;;;13.90;4.50;;;;;;;;;;5018474;28;20638;-45
2023/06/06 01:11:47;;;;;;;14.63;4.32;;;;;;;;;;4997153;28;20662;-46
2023/06/06 01:14:19;;;;;;;10.70;3.63;;;;;;;;;;5022373;28;20036;-45
2023/06/06 01:16:49;;;;;;;10.55;4.20;;;;;;;;;;5021824;28;20053;-45
2023/06/06 01:19:20;;;;;;;9.52;3.33;;;;;;;;;;5019045;28;20040;-46
2023/06/06 01:21:51;;;;;;;10.95;4.07;;;;;;;;;;5010244;28;20393;-48
2023/06/06 01:24:20;;;;;;;8.40;3.70;;;;;;;;;;5026200;28;20425;-46
2023/06/06 01:26:48;;;;;;;9.77;3.93;;;;;;;;;;5018113;28;20127;-44
2023/06/06 01:29:16;;;;;;;8.40;3.42;;;;;;;;;;5027857;28;20052;-45
2023/06/06 01:31:53;;;;;;;9.95;3.40;;;;;;;;;;5013606;28;20040;-44
2023/06/06 01:34:25;;;;;;;10.02;3.72;;;;;;;;;;5020281;28;20521;-45
2023/06/06 01:36:57;;;;;;;12.38;4.30;;;;;;;;;;5024757;28;20041;-46
2023/06/06 01:39:25;;;;;;;12.27;3.90;;;;;;;;;;5016283;28;20029;-46
2023/06/06 01:41:55;;;;;;;10.73;3.53;;;;;;;;;;5024375;28;20045;-46
2023/06/06 01:44:23;;;;;;;10.10;3.78;;;;;;;;;;5004635;28;20037;-45
2023/06/06 01:46:51;;;;;;;10.35;3.28;;;;;;;;;;5023411;28;20050;-45
2023/06/06 01:49:20;;;;;;;8.52;2.83;;;;;;;;;;5010624;28;20490;-45
2023/06/06 01:51:48;;;;;;;11.00;3.30;;;;;;;;;;5007425;28;20629;-43
2023/06/06 01:54:17;;;;;;;10.70;3.10;;;;;;;;;;5004273;28;20041;-44
2023/06/06 01:56:45;;;;;;;10.07;3.40;;;;;;;;;;5023723;28;20045;-43
2023/06/06 01:59:13;;;;;;;9.50;3.95;;;;;;;;;;5025628;28;20056;-45
2023/06/06 02:01:41;;;;;;;8.82;3.70;;;;;;;;;;5012523;28;20037;-44
2023/06/06 02:04:08;;;;;;;11.67;3.70;;;;;;;;;;5002550;28;20033;-44
2023/06/06 02:06:36;;;;;;;10.60;3.45;;;;;;;;;;5003461;28;20057;-44
2023/06/06 02:09:04;;;;;;;9.10;3.28;;;;;;;;;;5010291;28;20087;-44
2023/06/06 02:11:33;;;;;;;9.48;3.88;;;;;;;;;;5024232;28;20045;-44
2023/06/06 02:14:02;;;;;;;7.28;3.47;;;;;;;;;;5008757;28;20047;-45
2023/06/06 02:16:31;;;;;;;9.47;3.50;;;;;;;;;;5036160;28;20113;-45
2023/06/06 02:19:00;;;;;;;10.93;4.03;;;;;;;;;;5021184;28;20734;-43
2023/06/06 02:21:28;;;;;;;13.70;4.13;;;;;;;;;;5018113;28;20045;-46
2023/06/06 02:23:57;;;;;;;11.25;4.07;;;;;;;;;;5017763;28;20044;-43
2023/06/06 02:26:25;;;;;;;11.63;3.80;;;;;;;;;;5009833;28;20120;-44
2023/06/06 02:28:54;;;;;;;10.10;3.87;;;;;;;;;;4993802;28;20041;-45
2023/06/06 02:31:23;;;;;;;10.32;3.85;;;;;;;;;;5031308;28;20048;-48
2023/06/06 02:33:51;;;;;;;11.93;4.07;;;;;;;;;;4999288;28;20049;-45
2023/06/06 02:36:19;;;;;;;11.07;3.97;;;;;;;;;;5009416;28;20033;-48
2023/06/06 02:38:47;;;;;;;9.52;4.07;;;;;;;;;;5016407;28;20044;-45
2023/06/06 02:41:15;;;;;;;9.23;3.97;;;;;;;;;;4990159;28;20040;-46
2023/06/06 02:43:43;;;;;;;9.85;3.90;;;;;;;;;;5029392;28;20491;-44
2023/06/06 02:46:12;;;;;;;11.52;4.15;;;;;;;;;;5015994;28;20513;-44
2023/06/06 02:48:45;;;;;;;9.63;3.85;;;;;;;;;;5008462;28;20383;-45
2023/06/06 02:51:13;;;;;;;10.43;3.97;;;;;;;;;;5022798;28;20124;-43
2023/06/06 02:53:41;;;;;;;10.47;4.00;;;;;;;;;;5026620;28;20045;-45
2023/06/06 02:56:09;;;;;;;13.13;4.15;;;;;;;;;;5012795;28;20057;-45
2023/06/06 02:58:37;;;;;;;9.20;3.90;;;;;;;;;;5021861;28;20099;-44
2023/06/06 03:01:06;;;;;;;9.30;3.70;;;;;;;;;;5015068;28;20153;-44
2023/06/06 03:03:35;;;;;;;11.80;3.85;;;;;;;;;;5012161;28;20064;-45
2023/06/06 03:06:03;;;;;;;10.40;4.20;;;;;;;;;;5021180;28;20068;-44
2023/06/06 03:08:31;;;;;;;10.23;4.20;;;;;;;;;;5010673;28;20037;-45
2023/06/06 03:10:59;;;;;;;10.55;3.90;;;;;;;;;;5006330;28;20056;-44
2023/06/06 03:13:27;;;;;;;9.55;4.20;;;;;;;;;;5016830;28;20047;-43
2023/06/06 03:15:56;;;;;;;14.68;4.80;;;;;;;;;;5019620;28;20038;-46
2023/06/06 03:18:24;;;;;;;11.53;4.10;;;;;;;;;;5023930;28;20045;-44
2023/06/06 03:20:57;;;;;;;14.10;4.40;;;;;;;;;;5022332;28;20050;-47
2023/06/06 03:23:25;;;;;;;11.93;4.72;;;;;;;;;;5027421;28;20045;-45
2023/06/06 03:25:53;;;;;;;12.07;4.63;;;;;;;;;;5012485;28;20074;-45
2023/06/06 03:28:21;;;;;;;11.75;4.50;;;;;;;;;;5021455;28;20068;-43
2023/06/06 03:30:49;;;;;;;10.40;4.27;;;;;;;;;;5018240;28;20407;-45
2023/06/06 03:33:17;;;;;;;9.20;3.95;;;;;;;;;;4975752;28;20037;-44
2023/06/06 03:35:45;;;;;;;12.65;4.32;;;;;;;;;;5010313;28;20064;-45
2023/06/06 03:38:14;;;;;;;12.93;4.07;;;;;;;;;;4993170;28;20609;-43
2023/06/06 03:40:42;;;;;;;14.02;4.28;;;;;;;;;;5021616;28;20656;-44
2023/06/06 03:43:09;;;;;;;15.57;4.60;;;;;;;;;;5015544;28;20041;-44
2023/06/06 03:45:37;;;;;;;14.35;4.72;;;;;;;;;;4988179;28;20407;-44
2023/06/06 03:48:05;;;;;;;12.80;4.07;;;;;;;;;;5019619;28;20052;-44
2023/06/06 03:50:34;;;;;;;11.75;4.28;;;;;;;;;;5014637;28;20513;-44
2023/06/06 03:53:02;;;;;;;12.95;4.03;;;;;;;;;;5014706;28;20056;-45
2023/06/06 03:55:33;;;;;;;9.37;3.33;;;;;;;;;;4989665;28;20041;-44
2023/06/06 03:58:02;;;;;;;9.07;3.40;;;;;;;;;;5011626;28;20394;-45
2023/06/06 04:00:31;;;;;;;12.10;4.30;;;;;;;;;;5027522;28;20045;-45
2023/06/06 04:02:59;;;;;;;10.57;4.00;;;;;;;;;;5009596;28;20052;-46
2023/06/06 04:05:27;;;;;;;10.38;4.10;;;;;;;;;;5020481;28;20037;-46
2023/06/06 04:07:54;;;;;;;10.57;4.03;;;;;;;;;;5017934;28;20923;-44
2023/06/06 04:10:22;;;;;;;11.80;4.57;;;;;;;;;;5013115;28;20049;-44
2023/06/06 04:12:51;;;;;;;12.63;4.47;;;;;;;;;;5013024;28;20032;-44
2023/06/06 04:15:19;;;;;;;15.02;4.63;;;;;;;;;;5022823;28;20048;-43
2023/06/06 04:17:47;;;;;;;11.32;4.18;;;;;;;;;;5015703;28;20573;-44
2023/06/06 04:20:15;;;;;;;11.97;4.90;;;;;;;;;;5000898;28;20087;-45
2023/06/06 04:22:43;;;;;;;10.13;5.07;;;;;;;;;;5018782;28;20562;-45
2023/06/06 04:25:12;;;;;;;15.63;4.80;;;;;;;;;;5016062;28;20045;-43
2023/06/06 04:27:41;;;;;;;11.48;4.05;;;;;;;;;;5016071;28;20442;-46
2023/06/06 04:30:12;;;;;;;9.80;4.50;;;;;;;;;;5020562;28;20151;-44
2023/06/06 04:32:41;;;;;;;12.67;4.17;;;;;;;;;;5017636;28;20037;-45
2023/06/06 04:35:11;;;;;;;13.57;4.32;;;;;;;;;;5019327;28;20527;-45
2023/06/06 04:37:40;;;;;;;11.98;4.38;;;;;;;;;;5007724;28;20433;-48
2023/06/06 04:40:10;;;;;;;10.50;4.03;;;;;;;;;;5003662;28;20129;-44
2023/06/06 04:42:39;;;;;;;15.10;4.50;;;;;;;;;;5033908;28;20094;-44
2023/06/06 04:45:08;;;;;;;11.13;4.30;;;;;;;;;;5016901;28;20048;-43
2023/06/06 04:47:39;;;;;;;10.95;3.60;;;;;;;;;;5016272;28;20045;-43
2023/06/06 04:50:08;;;;;;;12.18;3.78;;;;;;;;;;5012226;28;20076;-45
2023/06/06 04:52:35;;;;;;;9.75;4.10;;;;;;;;;;5027002;28;20036;-46
2023/06/06 04:55:04;;;;;;;10.50;4.35;;;;;;;;;;5008612;28;20095;-44
2023/06/06 04:57:33;;;;;;;9.37;3.37;;;;;;;;;;5015703;28;20042;-46
2023/06/06 05:00:01;;;;;;;12.38;3.50;;;;;;;;;;5000319;28;21676;-47
2023/06/06 05:02:29;;;;;;;14.70;4.10;;;;;;;;;;5018018;28;20056;-44
2023/06/06 05:04:59;;;;;;;10.15;4.13;;;;;;;;;;5008223;28;20041;-46
2023/06/06 05:07:27;;;;;;;13.55;4.15;;;;;;;;;;5021087;28;20088;-45
2023/06/06 05:09:55;;;;;;;11.63;3.97;;;;;;;;;;5016394;28;20502;-46
2023/06/06 05:12:23;;;;;;;11.93;4.78;;;;;;;;;;5015208;28;20068;-48
2023/06/06 05:14:51;;;;;;;13.35;4.60;;;;;;;;;;5015530;28;20072;-44
2023/06/06 05:17:20;;;;;;;10.88;4.93;;;;;;;;;;5014582;28;20492;-49
2023/06/06 05:19:49;;;;;;;10.80;4.18;;;;;;;;;;5008899;28;20075;-45
2023/06/06 05:22:18;;;;;;;12.27;4.50;;;;;;;;;;5012008;28;20471;-44
2023/06/06 05:24:46;;;;;;;11.35;4.45;;;;;;;;;;5015644;28;20543;-46
2023/06/06 05:27:14;;;;;;;13.05;4.45;;;;;;;;;;5010806;28;20041;-46
2023/06/06 05:29:42;;;;;;;11.35;4.15;;;;;;;;;;4997590;28;20042;-44
2023/06/06 05:32:09;;;;;;;10.35;4.03;;;;;;;;;;5005652;28;20052;-45
2023/06/06 05:34:38;;;;;;;11.30;4.17;;;;;;;;;;5017000;28;20053;-45
2023/06/06 05:37:07;;;;;;;12.82;4.50;;;;;;;;;;5001790;28;20044;-45
2023/06/06 05:39:36;;;;;;;10.52;4.40;;;;;;;;;;5007567;28;20128;-45
2023/06/06 05:42:05;;;;;;;11.75;5.20;;;;;;;;;;5025181;28;20056;-45
2023/06/06 05:44:32;;;;;;;11.13;4.50;;;;;;;;;;5011165;28;20036;-46
2023/06/06 05:47:00;;;;;;;10.20;4.53;;;;;;;;;;5014112;28;20405;-47
2023/06/06 05:49:29;;;;;;;13.18;4.60;;;;;;;;;;5016084;28;20582;-45
2023/06/06 05:51:56;;;;;;;11.82;4.65;;;;;;;;;;5017496;28;20043;-44
2023/06/06 05:54:24;;;;;;;10.20;4.22;;;;;;;;;;5014864;28;20462;-44
2023/06/06 05:56:58;;;;;;;13.52;4.32;;;;;;;;;;5012616;28;20048;-44
2023/06/06 05:59:26;;;;;;;9.60;4.37;;;;;;;;;;5012413;28;20136;-48
2023/06/06 06:01:54;;;;;;;10.68;4.65;;;;;;;;;;5018493;28;20049;-45
2023/06/06 06:04:23;;;;;;;11.35;4.38;;;;;;;;;;5011082;28;20048;-45
2023/06/06 06:06:53;;;;;;;11.93;4.25;;;;;;;;;;5018204;28;20057;-45
2023/06/06 06:09:21;;;;;;;10.32;4.22;;;;;;;;;;5020717;28;20116;-45
2023/06/06 06:11:50;;;;;;;10.33;4.23;;;;;;;;;;5008874;28;20044;-47
2023/06/06 06:14:19;;;;;;;11.70;4.18;;;;;;;;;;5016302;28;20045;-46
2023/06/06 06:16:47;;;;;;;10.25;4.32;;;;;;;;;;5020150;28;20056;-44
2023/06/06 06:19:15;;;;;;;9.05;4.00;;;;;;;;;;5015421;28;20558;-47
2023/06/06 06:21:43;;;;;;;13.45;4.35;;;;;;;;;;5016289;28;20054;-46
2023/06/06 06:24:11;;;;;;;10.83;3.77;;;;;;;;;;5015353;28;20099;-44
2023/06/06 06:26:39;;;;;;;11.57;3.92;;;;;;;;;;5021737;28;20153;-44
2023/06/06 06:29:07;;;;;;;7.93;3.10;;;;;;;;;;5011616;28;20063;-44
2023/06/06 06:31:36;;;;;;;8.65;3.38;;;;;;;;;;5022201;28;20045;-44
2023/06/06 06:34:04;;;;;;;9.55;3.25;;;;;;;;;;5015283;28;20041;-46
2023/06/06 06:36:32;;;;;;;10.73;3.20;;;;;;;;;;5013093;28;20558;-46
2023/06/06 06:39:00;;;;;;;10.80;3.17;;;;;;;;;;5025544;28;20047;-44
2023/06/06 06:41:27;;;;;;;10.32;3.22;;;;;;;;;;5019633;28;20057;-45
2023/06/06 06:43:55;;;;;;;11.38;3.35;;;;;;;;;;4983895;28;20037;-43
2023/06/06 06:46:23;;;;;;;12.13;3.90;;;;;;;;;;5030275;28;20124;-45
2023/06/06 06:48:52;;;;;;;8.13;3.17;;;;;;;;;;5000917;28;20041;-46
2023/06/06 06:51:21;;;;;;;9.50;3.72;;;;;;;;;;5031576;28;20045;-45
2023/06/06 06:53:51;;;;;;;10.70;3.55;;;;;;;;;;5016740;28;20407;-47
2023/06/06 06:56:19;;;;;;;9.80;3.40;;;;;;;;;;5023920;28;20039;-44
2023/06/06 06:58:48;;;;;;;10.55;3.58;;;;;;;;;;5017333;28;20079;-45
2023/06/06 07:01:20;;;;;;;13.23;3.97;;;;;;;;;;5020185;28;20045;-46
2023/06/06 07:03:48;;;;;;;13.98;3.92;;;;;;;;;;5023031;28;20052;-47
2023/06/06 07:06:18;;;;;;;9.00;3.80;;;;;;;;;;5007486;28;20053;-45
2023/06/06 07:08:46;;;;;;;7.88;3.63;;;;;;;;;;5020846;28;20063;-47
2023/06/06 07:11:14;;;;;;;10.60;4.25;;;;;;;;;;5011499;28;20193;-44
2023/06/06 07:13:42;;;;;;;8.87;4.33;;;;;;;;;;5019808;28;20049;-44
2023/06/06 07:16:10;;;;;;;11.05;4.28;;;;;;;;;;5017619;28;20675;-47
2023/06/06 07:18:37;;;;;;;15.68;4.68;;;;;;;;;;5029640;28;20044;-44
2023/06/06 07:21:05;;;;;;;10.65;3.92;;;;;;;;;;5006986;28;20041;-47
2023/06/06 07:23:34;;;;;;;9.77;3.90;;;;;;;;;;5025130;28;20499;-46
2023/06/06 07:26:06;;;;;;;11.33;4.37;;;;;;;;;;5002499;28;20439;-46
2023/06/06 07:28:34;;;;;;;13.93;4.38;;;;;;;;;;5024334;28;20056;-45
2023/06/06 07:31:02;;;;;;;13.25;4.00;;;;;;;;;;4990140;28;20037;-46
2023/06/06 07:33:30;;;;;;;10.60;4.07;;;;;;;;;;5017932;28;20067;-47
2023/06/06 07:35:58;;;;;;;11.15;3.90;;;;;;;;;;5008067;28;20045;-45
2023/06/06 07:38:27;;;;;;;11.50;3.53;;;;;;;;;;5019422;28;20165;-48
2023/06/06 07:40:57;;;;;;;9.32;3.20;;;;;;;;;;5029832;28;20103;-45
2023/06/06 07:43:25;;;;;;;12.88;3.40;;;;;;;;;;5011097;28;20045;-45
2023/06/06 07:45:52;;;;;;;12.65;2.90;;;;;;;;;;5019187;28;20053;-45
2023/06/06 07:48:20;;;;;;;7.93;2.92;;;;;;;;;;5005653;28;20408;-47
2023/06/06 07:50:48;;;;;;;8.83;2.60;;;;;;;;;;5022773;28;20512;-44
2023/06/06 07:53:16;;;;;;;9.50;2.92;;;;;;;;;;5015021;28;20128;-45
2023/06/06 07:55:44;;;;;;;12.00;3.30;;;;;;;;;;5018430;28;20065;-45
2023/06/06 07:58:13;;;;;;;7.65;2.45;;;;;;;;;;5012445;28;20037;-47
2023/06/06 08:00:41;;;;;;;10.13;2.30;;;;;;;;;;5009930;28;20055;-48
2023/06/06 08:03:11;;;;;;;10.23;2.70;;;;;;;;;;5005780;28;20044;-46
2023/06/06 08:05:40;;;;;;;7.95;2.45;;;;;;;;;;5019089;28;20414;-46
2023/06/06 08:08:07;;;;;;;7.82;2.08;;;;;;;;;;5011004;28;20598;-46
2023/06/06 08:10:36;;;;;;;9.10;2.60;;;;;;;;;;5020902;28;20040;-46
2023/06/06 08:13:04;;;;;;;9.95;2.55;;;;;;;;;;5013390;28;20071;-47
2023/06/06 08:15:33;;;;;;;9.07;2.80;;;;;;;;;;5017961;28;20045;-45
2023/06/06 08:18:01;;;;;;;15.50;2.38;;;;;;;;;;5016482;28;20444;-45
2023/06/06 08:20:29;;;;;;;8.57;2.60;;;;;;;;;;5017462;28;20041;-47
2023/06/06 08:22:57;;;;;;;7.05;2.70;;;;;;;;;;4963656;28;20053;-48
2023/06/06 08:25:24;;;;;;;7.78;2.50;;;;;;;;;;4998850;28;20094;-46
2023/06/06 08:27:52;;;;;;;7.43;2.70;;;;;;;;;;5002020;28;20083;-45
2023/06/06 08:30:22;;;;;;;10.68;2.70;;;;;;;;;;5001775;28;20051;-47
2023/06/06 08:32:52;;;;;;;10.43;2.47;;;;;;;;;;5007762;28;20534;-45
2023/06/06 08:35:20;;;;;;;8.10;2.42;;;;;;;;;;4998740;28;20566;-47
2023/06/06 08:37:53;;;;;;;7.93;2.03;;;;;;;;;;5010196;28;20060;-45
2023/06/06 08:40:21;;;;;;;8.97;2.20;;;;;;;;;;5010671;28;20034;-47
2023/06/06 08:42:54;;;;;;;7.70;2.10;;;;;;;;;;5019033;28;20033;-49
2023/06/06 08:45:21;;;;;;;7.25;2.42;;;;;;;;;;5000050;28;20407;-46
2023/06/06 08:47:52;;;;;;;6.60;2.10;;;;;;;;;;5000055;28;20566;-46
2023/06/06 08:50:21;;;;;;;7.43;1.80;;;;;;;;;;4993696;28;20483;-45
2023/06/06 08:52:49;;;;;;;6.90;2.00;;;;;;;;;;5022300;28;20068;-45
2023/06/06 08:55:19;;;;;;;7.03;2.22;;;;;;;;;;4987279;28;20041;-46
2023/06/06 08:57:47;;;;;;;10.18;2.05;;;;;;;;;;5009123;28;20049;-47
2023/06/06 09:00:21;;;;;;;10.88;4.13;;;;;;;;;;5016093;28;20055;-46
2023/06/06 09:02:49;;;;;;;11.50;2.40;;;;;;;;;;5028389;28;20056;-45
2023/06/06 09:05:20;;;;;;;9.53;3.00;;;;;;;;;;5013860;28;20041;-48
2023/06/06 09:07:48;;;;;;;8.15;2.35;;;;;;;;;;5013273;28;20077;-45
2023/06/06 09:10:16;;;;;;;6.90;2.08;;;;;;;;;;5021019;28;20476;-45
2023/06/06 09:12:45;;;;;;;7.13;2.50;;;;;;;;;;5014024;28;20045;-46
2023/06/06 09:15:13;;;;;;;7.78;2.42;;;;;;;;;;5013285;28;20068;-50
2023/06/06 09:17:44;;;;;;;7.23;2.47;;;;;;;;;;5003096;28;20052;-44
2023/06/06 09:20:12;;;;;;;7.45;2.70;;;;;;;;;;5016326;28;20033;-45
2023/06/06 09:22:43;;;;;;;8.95;2.60;;;;;;;;;;5011563;28;20404;-46
2023/06/06 09:25:31;;;;;;;7.53;2.42;;;;;;;;;;5013717;28;20191;-44
2023/06/06 09:28:00;;;;;;;8.98;3.03;;;;;;;;;;5025542;28;20036;-48
2023/06/06 09:30:28;;;;;;;9.03;2.80;;;;;;;;;;4986122;28;20099;-46
2023/06/06 09:32:58;;;;;;;9.75;2.65;;;;;;;;;;5020591;28;20632;-44
2023/06/06 09:35:29;;;;;;;10.30;2.70;;;;;;;;;;4989386;28;20055;-45
2023/06/06 09:38:05;;;;;;;6.90;2.60;;;;;;;;;;5025835;28;20570;-45
2023/06/06 09:40:33;;;;;;;8.70;2.55;;;;;;;;;;5005512;28;20048;-47
2023/06/06 09:43:01;;;;;;;7.70;2.70;;;;;;;;;;5028249;28;20440;-47
2023/06/06 09:45:28;;;;;;;10.70;2.80;;;;;;;;;;5008058;28;20043;-44
2023/06/06 09:48:00;;;;;;;7.70;2.65;;;;;;;;;;5016601;28;20042;-45
2023/06/06 09:50:29;;;;;;;8.05;2.60;;;;;;;;;;5023858;28;20041;-49
2023/06/06 09:52:58;;;;;;;8.63;2.60;;;;;;;;;;5022347;28;20072;-47
2023/06/06 09:55:26;;;;;;;8.33;2.60;;;;;;;;;;5028474;28;20461;-48
2023/06/06 09:57:55;;;;;;;7.82;2.92;;;;;;;;;;4994102;28;20045;-51
2023/06/06 10:00:24;;;;;;;8.55;2.63;;;;;;;;;;5013799;28;20064;-44
2023/06/06 10:02:58;;;;;;;9.15;2.30;;;;;;;;;;5029473;28;20087;-44
2023/06/06 10:05:26;;;;;;;8.25;2.53;;;;;;;;;;5012842;28;20123;-45
2023/06/06 10:07:54;;;;;;;10.50;2.90;;;;;;;;;;5009969;28;20136;-44
2023/06/06 10:10:24;;;;;;;8.43;3.05;;;;;;;;;;5017121;28;20033;-45
2023/06/06 10:12:54;;;;;;;8.90;2.90;;;;;;;;;;5017968;28;20076;-45
2023/06/06 10:15:22;;;;;;;7.90;2.88;;;;;;;;;;5021012;28;20037;-49
2023/06/06 10:17:51;;;;;;;9.98;2.80;;;;;;;;;;5010759;28;20573;-47
2023/06/06 10:20:20;;;;;;;9.07;2.93;;;;;;;;;;5016745;28;20055;-45
2023/06/06 10:22:48;;;;;;;6.82;2.30;;;;;;;;;;5000937;28;20131;-44
2023/06/06 10:25:16;;;;;;;7.68;2.60;;;;;;;;;;5027938;28;20060;-45
2023/06/06 10:27:48;;;;;;;11.20;2.25;;;;;;;;;;5008656;28;20573;-43
2023/06/06 10:30:23;;;;;;;8.75;2.47;;;;;;;;;;5018027;28;20072;-45
2023/06/06 10:32:53;;;;;;;7.60;2.57;;;;;;;;;;5026345;28;20483;-46
2023/06/06 10:35:22;;;;;;;10.38;2.67;;;;;;;;;;4988691;28;20038;-46
2023/06/06 10:38:08;;;;;;;7.45;2.30;;;;;;;;;;5025605;28;20050;-44
2023/06/06 10:40:43;;;;;;;7.57;3.63;;;;;;;;;;5018916;28;20045;-43
2023/06/06 10:43:14;;;;;;;8.82;2.70;;;;;;;;;;5021736;28;20152;-49
2023/06/06 10:46:01;;;;;;;8.43;2.50;;;;;;;;;;4993920;28;20318;-46
2023/06/06 10:48:38;;;;;;;8.05;2.47;;;;;;;;;;5015678;28;20390;-46
2023/06/06 10:51:06;;;;;;;7.00;2.45;;;;;;;;;;5023593;28;20041;-47
2023/06/06 10:53:35;;;;;;;7.82;2.80;;;;;;;;;;5016089;28;20403;-48
2023/06/06 10:56:06;;;;;;;10.38;2.78;;;;;;;;;;5021904;28;20040;-45
2023/06/06 10:58:39;;;;;;;7.57;2.80;;;;;;;;;;5010777;28;20044;-45
2023/06/06 11:01:08;;;;;;;8.23;3.13;;;;;;;;;;5017213;28;20048;-44
2023/06/06 11:03:36;;;;;;;7.53;2.90;;;;;;;;;;4992695;28;20434;-48
2023/06/06 11:06:09;;;;;;;8.32;2.90;;;;;;;;;;5016830;28;20049;-45
2023/06/06 11:08:44;;;;;;;8.82;3.25;;;;;;;;;;5013741;28;20487;-46
2023/06/06 11:11:19;;;;;;;13.97;3.37;;;;;;;;;;5008952;28;20048;-49
2023/06/06 11:13:53;;;;;;;9.65;3.35;;;;;;;;;;5040988;28;20052;-46
2023/06/06 11:16:31;;;;;;;11.57;3.25;;;;;;;;;;5002667;28;20043;-44
2023/06/06 11:19:07;;;;;;;8.80;3.25;;;;;;;;;;5012251;28;20057;-46
2023/06/06 11:21:36;;;;;;;10.15;3.10;;;;;;;;;;5005461;28;20554;-45
2023/06/06 11:24:05;;;;;;;12.57;3.90;;;;;;;;;;5003031;28;20124;-47
2023/06/06 11:26:33;;;;;;;12.05;3.38;;;;;;;;;;5019968;28;20051;-46
2023/06/06 11:29:04;;;;;;;11.07;3.13;;;;;;;;;;5011280;28;20037;-47
2023/06/06 11:31:32;;;;;;;11.68;3.00;;;;;;;;;;5014016;28;20382;-45
2023/06/06 11:34:04;;;;;;;10.90;3.15;;;;;;;;;;4992064;28;20956;-45
2023/06/06 11:36:33;;;;;;;9.23;3.27;;;;;;;;;;5003759;28;20237;-44
2023/06/06 11:39:01;;;;;;;9.85;3.30;;;;;;;;;;5009443;28;20123;-44
2023/06/06 11:41:29;;;;;;;10.90;2.80;;;;;;;;;;5015551;28;20037;-43
2023/06/06 11:43:57;;;;;;;9.82;2.83;;;;;;;;;;5015385;28;20068;-44
2023/06/06 11:46:26;;;;;;;12.63;2.78;;;;;;;;;;5008827;28;20119;-46
2023/06/06 11:48:57;;;;;;;11.43;2.60;;;;;;;;;;5025725;28;20044;-46
2023/06/06 11:51:28;;;;;;;7.97;2.78;;;;;;;;;;5032907;28;20041;-45
2023/06/06 11:53:56;;;;;;;7.15;2.30;;;;;;;;;;4990369;28;20141;-46
2023/06/06 11:56:25;;;;;;;6.85;1.98;;;;;;;;;;5011786;28;20521;-46
2023/06/06 11:58:56;;;;;;;8.00;2.50;;;;;;;;;;5004263;28;20094;-46
2023/06/06 12:01:27;;;;;;;11.17;3.03;;;;;;;;;;4990522;28;20045;-44
2023/06/06 12:03:54;;;;;;;8.35;2.72;;;;;;;;;;5010038;28;20049;-44
2023/06/06 12:06:24;;;;;;;6.72;2.53;;;;;;;;;;4996877;28;20053;-44
2023/06/06 12:08:55;;;;;;;7.80;2.60;;;;;;;;;;5011117;28;20397;-45
2023/06/06 12:11:23;;;;;;;9.35;2.92;;;;;;;;;;4992430;28;20877;-46
2023/06/06 12:13:52;;;;;;;6.83;2.70;;;;;;;;;;5008279;28;20076;-45
2023/06/06 12:16:21;;;;;;;7.18;2.50;;;;;;;;;;5000873;28;20051;-45
2023/06/06 12:18:50;;;;;;;8.93;2.58;;;;;;;;;;4990546;28;20527;-49
2023/06/06 12:21:18;;;;;;;7.57;2.63;;;;;;;;;;4986297;28;20036;-45
2023/06/06 12:23:46;;;;;;;6.90;2.70;;;;;;;;;;4990088;28;20606;-48
2023/06/06 12:26:16;;;;;;;6.60;2.63;;;;;;;;;;4981787;28;20134;-47
2023/06/06 12:28:53;;;;;;;6.30;2.58;;;;;;;;;;5004221;28;20423;-45
2023/06/06 12:31:21;;;;;;;8.23;2.28;;;;;;;;;;5005624;28;20463;-47
2023/06/06 12:33:51;;;;;;;7.75;2.20;;;;;;;;;;4996212;28;20064;-45
2023/06/06 12:36:20;;;;;;;7.50;2.15;;;;;;;;;;5006325;28;20099;-45
2023/06/06 12:38:58;;;;;;;10.03;2.07;;;;;;;;;;5005115;28;20041;-46
2023/06/06 12:41:35;;;;;;;10.43;2.30;;;;;;;;;;4999877;28;20080;-45
2023/06/06 12:44:06;;;;;;;8.00;1.98;;;;;;;;;;4994505;28;20052;-44
2023/06/06 12:46:34;;;;;;;7.03;2.20;;;;;;;;;;4988372;28;20138;-46
2023/06/06 12:49:03;;;;;;;8.02;2.00;;;;;;;;;;5007685;28;20037;-44
2023/06/06 12:51:31;;;;;;;9.63;2.90;;;;;;;;;;4992956;28;20037;-45
2023/06/06 12:53:59;;;;;;;9.38;2.10;;;;;;;;;;5000608;28;20051;-45
2023/06/06 12:56:27;;;;;;;6.07;2.00;;;;;;;;;;5002972;28;20043;-45
2023/06/06 12:58:56;;;;;;;9.13;2.30;;;;;;;;;;4997448;28;20514;-44
2023/06/06 13:01:25;;;;;;;7.80;2.45;;;;;;;;;;4995082;28;20053;-46
2023/06/06 13:03:53;;;;;;;6.87;2.00;;;;;;;;;;5007127;28;20069;-44
2023/06/06 13:06:22;;;;;;;7.68;2.70;;;;;;;;;;4996585;28;20437;-44
2023/06/06 13:08:50;;;;;;;7.57;2.08;;;;;;;;;;5012327;28;20045;-46
2023/06/06 13:11:18;;;;;;;7.13;2.05;;;;;;;;;;4957149;28;20061;-45
2023/06/06 13:13:46;;;;;;;6.03;1.98;;;;;;;;;;4989282;28;20415;-45
2023/06/06 13:16:13;;;;;;;9.13;2.73;;;;;;;;;;4999505;28;20056;-47
2023/06/06 13:18:41;;;;;;;7.10;2.33;;;;;;;;;;4998858;28;20040;-46
2023/06/06 13:21:09;;;;;;;6.13;2.55;;;;;;;;;;5003843;28;20427;-47
2023/06/06 13:23:38;;;;;;;8.10;2.72;;;;;;;;;;4989482;28;20056;-46
2023/06/06 13:26:06;;;;;;;9.40;2.40;;;;;;;;;;4992474;28;20118;-45
2023/06/06 13:28:34;;;;;;;11.10;3.13;;;;;;;;;;5007963;28;20056;-46
2023/06/06 13:31:03;;;;;;;7.40;2.45;;;;;;;;;;4998281;28;20045;-45
2023/06/06 13:33:30;;;;;;;7.25;2.40;;;;;;;;;;5022393;28;20127;-46
2023/06/06 13:36:00;;;;;;;8.40;3.05;;;;;;;;;;5017446;28;20118;-46
2023/06/06 13:38:29;;;;;;;9.32;2.95;;;;;;;;;;5029591;28;20051;-46
2023/06/06 13:40:59;;;;;;;7.27;2.60;;;;;;;;;;5023581;28;20056;-47
2023/06/06 13:43:27;;;;;;;7.45;2.65;;;;;;;;;;5007745;28;20530;-45
2023/06/06 13:45:55;;;;;;;7.32;2.25;;;;;;;;;;5026528;28;20411;-45
2023/06/06 13:48:22;;;;;;;8.00;2.58;;;;;;;;;;5013785;28;20080;-45
2023/06/06 13:50:50;;;;;;;5.35;2.25;;;;;;;;;;4997521;28;20075;-45
2023/06/06 13:53:20;;;;;;;7.23;2.37;;;;;;;;;;5026815;28;20037;-46
2023/06/06 13:55:51;;;;;;;9.32;2.78;;;;;;;;;;5018754;28;20079;-45
2023/06/06 13:58:23;;;;;;;6.90;2.40;;;;;;;;;;5020790;28;20040;-44
2023/06/06 14:00:52;;;;;;;7.65;2.38;;;;;;;;;;5026803;28;20051;-45
2023/06/06 14:03:20;;;;;;;8.95;2.28;;;;;;;;;;5007507;28;20407;-44
2023/06/06 14:05:48;;;;;;;6.63;2.60;;;;;;;;;;5015320;28;20139;-45
2023/06/06 14:08:16;;;;;;;6.65;2.20;;;;;;;;;;5018799;28;20521;-45
2023/06/06 14:10:45;;;;;;;6.75;2.42;;;;;;;;;;5023687;28;20483;-45
2023/06/06 14:13:13;;;;;;;6.45;2.53;;;;;;;;;;5026714;28;20032;-49
2023/06/06 14:15:42;;;;;;;7.32;2.00;;;;;;;;;;5016340;28;20065;-44
2023/06/06 14:18:10;;;;;;;5.63;1.60;;;;;;;;;;5017690;28;20406;-44
2023/06/06 14:20:48;;;;;;;6.35;1.83;;;;;;;;;;5022914;28;20124;-45
2023/06/06 14:23:16;;;;;;;8.55;1.95;;;;;;;;;;5011471;28;20065;-47
2023/06/06 14:25:45;;;;;;;6.05;1.92;;;;;;;;;;5002399;28;20112;-45
2023/06/06 14:28:13;;;;;;;8.38;2.17;;;;;;;;;;5011007;28;20041;-46
2023/06/06 14:30:44;;;;;;;7.80;1.80;;;;;;;;;;5010097;28;20037;-46
2023/06/06 14:33:11;;;;;;;5.35;1.80;;;;;;;;;;5021760;28;20140;-43
2023/06/06 14:35:40;;;;;;;6.32;1.75;;;;;;;;;;5009071;28;20045;-48
2023/06/06 14:38:08;;;;;;;6.38;2.20;;;;;;;;;;5017761;28;20504;-45
2023/06/06 14:40:36;;;;;;;7.68;2.22;;;;;;;;;;5004102;28;20037;-46
2023/06/06 14:43:03;;;;;;;5.53;1.90;;;;;;;;;;5011544;28;20482;-47
2023/06/06 14:45:31;;;;;;;5.63;2.92;;;;;;;;;;5021971;28;20055;-46
2023/06/06 14:48:00;;;;;;;5.28;1.90;;;;;;;;;;4988798;28;20423;-46